Time;durP1;ratioP1;P1;durP2;ratioP2;P2;SDS_P1;SDS_P2;PMS_P1;PMS_P2;Temp;Humidity;BMP_temperature;BMP_pressure;BME280_temperature;BME280_humidity;BME280_pressure;Samples;Min_cycle;Max_cycle;Signal;HPM_P1;HPM_P2
2022/02/22 00:01:18;;;;;;;9.38;4.60;;;;;;;10.85;48.78;99756.05;1690040;84;21127;-76
2022/02/22 00:03:45;;;;;;;10.08;5.03;;;;;;;10.76;48.74;99754.59;1694121;84;21101;-64
2022/02/22 00:06:12;;;;;;;12.63;4.70;;;;;;;10.69;48.89;99750.19;1698189;84;21046;-61
2022/02/22 00:08:38;;;;;;;10.30;4.37;;;;;;;10.78;48.93;99749.50;1701885;84;21061;-60
2022/02/22 00:11:05;;;;;;;13.18;4.97;;;;;;;10.81;48.79;99746.50;1700671;84;21018;-61
2022/02/22 00:13:31;;;;;;;8.98;4.80;;;;;;;10.70;49.08;99745.77;1700705;84;21137;-75
2022/02/22 00:15:59;;;;;;;9.20;4.35;;;;;;;10.58;49.20;99742.13;1701020;84;21069;-61
2022/02/22 00:18:26;;;;;;;9.45;4.75;;;;;;;10.78;49.01;99746.09;1700768;84;21536;-61
2022/02/22 00:20:54;;;;;;;10.70;4.30;;;;;;;10.59;49.17;99748.94;1698641;84;21007;-61
2022/02/22 00:23:21;;;;;;;11.30;4.20;;;;;;;10.46;49.58;99743.19;1700839;84;21078;-60
2022/02/22 00:25:47;;;;;;;9.38;4.20;;;;;;;10.38;49.86;99749.37;1698109;84;21100;-74
2022/02/22 00:28:14;;;;;;;10.30;4.53;;;;;;;10.55;49.66;99740.70;1700046;84;22300;-61
2022/02/22 00:30:40;;;;;;;10.63;4.97;;;;;;;10.78;49.07;99739.07;1701506;84;20955;-61
2022/02/22 00:33:07;;;;;;;6.40;3.35;;;;;;;10.69;49.38;99746.27;1697446;84;21089;-61
2022/02/22 00:35:33;;;;;;;8.73;3.52;;;;;;;10.60;49.41;99743.52;1701399;84;20959;-60
2022/02/22 00:38:00;;;;;;;9.33;3.87;;;;;;;10.92;48.87;99744.63;1700190;84;22639;-63
2022/02/22 00:40:26;;;;;;;10.58;3.50;;;;;;;10.51;49.60;99749.91;1701517;84;21105;-61
2022/02/22 00:42:53;;;;;;;7.80;3.85;;;;;;;10.40;49.46;99754.38;1701499;84;21095;-60
2022/02/22 00:45:20;;;;;;;8.60;3.62;;;;;;;10.32;49.84;99758.45;1700092;84;21572;-61
2022/02/22 00:47:46;;;;;;;7.58;3.80;;;;;;;10.18;50.63;99756.23;1699607;84;20979;-62
2022/02/22 00:50:14;;;;;;;7.58;4.05;;;;;;;10.58;50.22;99754.66;1697031;84;21039;-60
2022/02/22 00:52:41;;;;;;;7.78;3.80;;;;;;;10.74;49.80;99752.70;1701283;84;21077;-60
2022/02/22 00:55:10;;;;;;;8.80;4.17;;;;;;;10.76;49.65;99760.64;1700776;84;21006;-60
2022/02/22 00:57:41;;;;;;;8.40;4.42;;;;;;;10.61;49.96;99754.78;1700590;84;20978;-75
2022/02/22 01:00:07;;;;;;;10.35;4.78;;;;;;;10.54;50.24;99759.16;1700403;84;21172;-62
2022/02/22 01:02:35;;;;;;;8.25;4.05;;;;;;;10.73;50.09;99757.11;1701152;84;20987;-60
2022/02/22 01:05:02;;;;;;;8.18;3.85;;;;;;;10.80;49.80;99746.20;1701654;84;21014;-61
2022/02/22 01:07:29;;;;;;;8.95;4.45;;;;;;;10.80;49.78;99752.73;1695296;84;20915;-73
2022/02/22 01:09:57;;;;;;;7.83;3.87;;;;;;;10.78;49.76;99745.59;1700029;84;20951;-60
2022/02/22 01:12:23;;;;;;;8.15;3.42;;;;;;;10.70;50.11;99737.95;1695482;84;21018;-65
2022/02/22 01:14:50;;;;;;;7.42;3.50;;;;;;;10.71;50.27;99739.55;1697453;84;21124;-61
2022/02/22 01:17:17;;;;;;;9.85;3.83;;;;;;;10.89;49.96;99734.58;1697853;84;20880;-62
2022/02/22 01:19:44;;;;;;;8.20;4.28;;;;;;;10.72;50.26;99729.45;1700268;84;21014;-75
2022/02/22 01:22:11;;;;;;;8.75;3.90;;;;;;;10.50;50.93;99726.67;1698139;84;21010;-64
2022/02/22 01:24:39;;;;;;;9.08;3.98;;;;;;;10.55;51.09;99724.27;1663950;85;20951;-60
2022/02/22 01:27:06;;;;;;;8.30;3.35;;;;;;;10.36;51.65;99725.80;1690827;84;21135;-61
2022/02/22 01:29:32;;;;;;;14.20;6.87;;;;;;;10.50;51.30;99728.77;1686913;84;21046;-74
2022/02/22 01:31:59;;;;;;;11.78;4.45;;;;;;;10.47;51.23;99724.75;1660229;85;20929;-61
2022/02/22 01:34:26;;;;;;;10.10;4.30;;;;;;;10.67;50.83;99721.39;1688101;84;21027;-66
2022/02/22 01:36:53;;;;;;;10.95;4.60;;;;;;;10.59;50.90;99708.55;1691830;84;21085;-61
2022/02/22 01:39:20;;;;;;;10.63;4.83;;;;;;;10.32;51.35;99717.58;1688564;84;21144;-61
2022/02/22 01:41:46;;;;;;;10.13;4.50;;;;;;;10.29;51.50;99716.66;1662770;85;20932;-62
2022/02/22 01:44:14;;;;;;;9.05;4.85;;;;;;;10.07;52.38;99715.11;1697007;84;20967;-60
2022/02/22 01:46:41;;;;;;;8.80;3.80;;;;;;;10.35;52.06;99715.89;1696520;84;21024;-70
2022/02/22 01:49:07;;;;;;;9.63;5.15;;;;;;;10.19;52.14;99709.66;1696663;84;22280;-60
2022/02/22 01:51:38;;;;;;;10.15;4.25;;;;;;;10.32;51.84;99710.26;1696811;84;21119;-73
2022/02/22 01:54:04;;;;;;;7.90;3.90;;;;;;;9.93;52.57;99717.66;1696451;84;21018;-61
2022/02/22 01:56:32;;;;;;;7.55;3.45;;;;;;;10.07;52.39;99717.22;1694157;84;21022;-78
2022/02/22 01:58:59;;;;;;;7.92;4.00;;;;;;;9.87;52.84;99721.02;1697011;84;20991;-61
2022/02/22 02:01:25;;;;;;;8.83;4.25;;;;;;;9.95;53.34;99724.77;1627714;84;21153;-61
2022/02/22 02:03:54;;;;;;;11.88;4.62;;;;;;;10.07;53.37;99721.63;1691093;84;21942;-62
2022/02/22 02:06:20;;;;;;;7.78;4.00;;;;;;;10.02;53.59;99720.91;1674785;85;21418;-78
2022/02/22 02:08:47;;;;;;;7.50;4.10;;;;;;;10.03;53.82;99719.90;1683901;85;21368;-60
2022/02/22 02:11:14;;;;;;;7.05;4.30;;;;;;;9.98;54.03;99716.58;1684033;85;21028;-60
2022/02/22 02:13:40;;;;;;;9.90;5.22;;;;;;;9.88;54.50;99719.22;1684486;85;21085;-76
2022/02/22 02:16:08;;;;;;;10.55;4.90;;;;;;;9.71;55.92;99720.02;1683684;85;21003;-63
2022/02/22 02:18:36;;;;;;;8.43;4.50;;;;;;;9.75;56.17;99717.34;1681125;85;21003;-62
2022/02/22 02:21:03;;;;;;;8.80;4.55;;;;;;;9.84;56.11;99710.98;1655369;86;21560;-62
2022/02/22 02:23:29;;;;;;;7.37;3.90;;;;;;;9.73;57.01;99711.02;1684078;84;21528;-76
2022/02/22 02:25:57;;;;;;;10.48;4.90;;;;;;;9.52;57.68;99707.19;1657964;86;21695;-60
2022/02/22 02:28:24;;;;;;;8.95;4.15;;;;;;;9.83;57.73;99708.08;1683661;85;21161;-80
2022/02/22 02:30:50;;;;;;;9.23;4.92;;;;;;;9.79;57.83;99709.96;1684246;84;21630;-65
2022/02/22 02:33:16;;;;;;;6.78;3.72;;;;;;;9.80;58.17;99706.36;1681152;85;21008;-62
2022/02/22 02:35:43;;;;;;;8.60;4.22;;;;;;;9.61;59.03;99700.03;1684536;85;20924;-63
2022/02/22 02:38:09;;;;;;;8.78;4.25;;;;;;;9.91;58.34;99696.71;1678481;85;21086;-64
2022/02/22 02:40:38;;;;;;;7.47;3.95;;;;;;;9.73;59.55;99697.20;1684132;85;21167;-80
2022/02/22 02:43:04;;;;;;;8.03;4.30;;;;;;;9.45;61.53;99694.63;1683971;85;21054;-62
2022/02/22 02:45:31;;;;;;;8.75;4.85;;;;;;;9.60;61.33;99697.93;1684467;85;21007;-63
2022/02/22 02:47:58;;;;;;;8.03;4.67;;;;;;;9.71;61.99;99694.00;1657556;86;20949;-63
2022/02/22 02:50:25;;;;;;;9.05;4.50;;;;;;;9.75;60.83;99691.32;1683930;85;21184;-63
2022/02/22 02:52:51;;;;;;;9.83;4.95;;;;;;;9.41;64.83;99690.29;1684163;85;21198;-78
2022/02/22 02:55:18;;;;;;;9.33;5.20;;;;;;;9.60;63.81;99694.53;1683693;85;21067;-63
2022/02/22 02:57:44;;;;;;;10.50;4.75;;;;;;;9.50;66.09;99693.55;1684241;84;21518;-74
2022/02/22 03:00:12;;;;;;;8.65;4.30;;;;;;;9.36;66.45;99702.27;1683368;85;21070;-62
2022/02/22 03:02:39;;;;;;;8.58;4.35;;;;;;;9.34;65.66;99700.34;1684561;85;21615;-62
2022/02/22 03:05:09;;;;;;;8.95;4.58;;;;;;;9.40;66.05;99697.00;1680608;84;21148;-77
2022/02/22 03:07:35;;;;;;;7.37;3.87;;;;;;;9.43;67.02;99695.30;1675433;85;21102;-62
2022/02/22 03:10:04;;;;;;;8.53;4.00;;;;;;;9.61;66.67;99693.02;1682092;85;21003;-78
2022/02/22 03:12:32;;;;;;;7.80;4.17;;;;;;;9.75;65.31;99688.22;1679928;85;21110;-63
2022/02/22 03:14:59;;;;;;;9.48;4.55;;;;;;;9.62;65.94;99693.83;1658099;86;21063;-64
2022/02/22 03:17:27;;;;;;;7.60;3.92;;;;;;;9.57;67.76;99691.00;1683767;85;21200;-66
2022/02/22 03:19:54;;;;;;;8.10;4.17;;;;;;;9.57;68.07;99696.20;1683736;85;21003;-72
2022/02/22 03:22:20;;;;;;;7.40;4.20;;;;;;;9.53;68.38;99692.38;1683899;85;21142;-62
2022/02/22 03:24:48;;;;;;;9.18;4.22;;;;;;;9.43;69.64;99687.48;1657523;86;20940;-66
2022/02/22 03:27:15;;;;;;;9.95;5.17;;;;;;;9.35;72.04;99692.34;1683316;85;20928;-64
2022/02/22 03:29:41;;;;;;;9.05;4.75;;;;;;;9.18;73.01;99686.61;1684500;85;21159;-61
2022/02/22 03:32:09;;;;;;;13.25;6.12;;;;;;;8.98;75.24;99687.75;1682729;85;20960;-71
2022/02/22 03:34:35;;;;;;;13.83;7.33;;;;;;;8.88;77.18;99681.25;1681428;85;21133;-62
2022/02/22 03:37:03;;;;;;;9.90;4.80;;;;;;;8.95;76.59;99680.82;1677413;85;21038;-65
2022/02/22 03:39:29;;;;;;;11.08;6.10;;;;;;;9.10;76.52;99678.16;1680339;85;21146;-67
2022/02/22 03:41:56;;;;;;;8.53;4.83;;;;;;;9.11;76.48;99682.35;1684599;85;21144;-78
2022/02/22 03:44:24;;;;;;;10.03;5.22;;;;;;;9.16;76.53;99681.28;1657366;86;21118;-62
2022/02/22 03:46:52;;;;;;;8.63;4.80;;;;;;;9.15;75.71;99673.19;1684675;85;21046;-62
2022/02/22 03:49:19;;;;;;;10.32;4.78;;;;;;;9.18;76.17;99668.91;1654912;86;20980;-75
2022/02/22 03:51:45;;;;;;;8.48;5.62;;;;;;;10.04;68.14;99664.72;1681377;85;21130;-61
2022/02/22 03:54:12;;;;;;;12.10;5.53;;;;;;;9.69;69.40;99667.34;1682202;85;21815;-64
2022/02/22 03:56:38;;;;;;;13.53;6.20;;;;;;;9.53;71.89;99668.45;1682184;85;21056;-60
2022/02/22 03:59:05;;;;;;;11.73;5.53;;;;;;;8.97;76.75;99667.13;1681978;85;21639;-60
2022/02/22 04:01:32;;;;;;;11.48;6.05;;;;;;;8.52;83.07;99667.33;1707328;80;21011;-69
2022/02/22 04:03:58;;;;;;;14.07;7.10;;;;;;;8.56;84.46;99661.73;1726733;83;21344;-64
2022/02/22 04:06:25;;;;;;;12.88;6.47;;;;;;;8.61;87.77;99659.41;1724971;83;21511;-61
2022/02/22 04:08:51;;;;;;;10.63;5.87;;;;;;;8.75;87.25;99663.72;1725747;83;21511;-62
2022/02/22 04:11:18;;;;;;;10.78;5.95;;;;;;;8.84;85.10;99656.63;1726030;83;20967;-73
2022/02/22 04:13:44;;;;;;;12.47;5.50;;;;;;;8.89;86.17;99656.86;1726013;83;20978;-61
2022/02/22 04:16:11;;;;;;;17.87;8.98;;;;;;;9.04;85.34;99654.19;1725028;83;21116;-69
2022/02/22 04:18:38;;;;;;;13.55;8.10;;;;;;;8.99;84.58;99656.06;1725932;83;21165;-60
2022/02/22 04:21:04;;;;;;;12.55;5.97;;;;;;;9.11;84.66;99652.45;1726365;83;21129;-63
2022/02/22 04:23:31;;;;;;;12.20;6.22;;;;;;;9.18;84.55;99653.31;1725518;83;21070;-74
2022/02/22 04:25:58;;;;;;;10.38;6.45;;;;;;;9.20;84.95;99656.52;1726028;83;21028;-60
2022/02/22 04:28:24;;;;;;;11.40;6.92;;;;;;;9.10;84.56;99658.66;1725678;83;21143;-60
2022/02/22 04:30:51;;;;;;;12.47;7.28;;;;;;;8.88;88.55;99665.16;1726286;83;21139;-62
2022/02/22 04:33:18;;;;;;;15.28;7.50;;;;;;;9.17;86.79;99667.31;1726300;83;21006;-61
2022/02/22 04:35:44;;;;;;;13.00;6.90;;;;;;;9.45;83.70;99671.21;1724839;83;21006;-61
2022/02/22 04:38:11;;;;;;;11.43;6.97;;;;;;;9.08;89.59;99672.32;1725692;83;22279;-76
2022/02/22 04:40:37;;;;;;;13.10;7.17;;;;;;;9.35;85.29;99674.13;1719462;83;21555;-61
2022/02/22 04:43:04;;;;;;;12.47;6.58;;;;;;;9.56;82.04;99678.49;1725205;81;22106;-61
2022/02/22 04:45:30;;;;;;;13.50;7.08;;;;;;;9.59;81.66;99676.02;1722893;83;21543;-63
2022/02/22 04:47:58;;;;;;;13.72;7.85;;;;;;;9.74;80.97;99679.31;1725841;83;21563;-61
2022/02/22 04:50:25;;;;;;;16.50;9.40;;;;;;;9.42;84.22;99682.79;1725466;83;21613;-70
2022/02/22 04:52:51;;;;;;;14.70;8.03;;;;;;;9.56;84.54;99692.00;1726555;83;21018;-61
2022/02/22 04:55:19;;;;;;;16.02;8.95;;;;;;;9.73;83.86;99701.91;1725987;83;21144;-63
2022/02/22 04:57:45;;;;;;;20.17;10.15;;;;;;;9.84;83.68;99706.28;1726015;83;20907;-60
2022/02/22 05:00:14;;;;;;;17.17;9.50;;;;;;;9.88;83.52;99713.50;1725165;83;21014;-61
2022/02/22 05:02:41;;;;;;;22.45;13.05;;;;;;;9.90;81.51;99711.53;1703108;82;21624;-62
2022/02/22 05:05:09;;;;;;;22.67;12.50;;;;;;;9.76;83.84;99715.04;1724909;81;20991;-72
2022/02/22 05:07:36;;;;;;;24.85;13.78;;;;;;;10.01;82.39;99713.30;1721628;82;21172;-64
2022/02/22 05:10:04;;;;;;;24.82;14.23;;;;;;;10.01;82.28;99714.09;1723127;83;21027;-65
2022/02/22 05:12:32;;;;;;;29.52;14.60;;;;;;;9.65;84.02;99718.97;1721116;83;20991;-66
2022/02/22 05:14:59;;;;;;;29.30;15.65;;;;;;;9.76;86.31;99720.25;1723752;83;21104;-62
2022/02/22 05:17:26;;;;;;;25.15;14.73;;;;;;;9.62;87.04;99716.77;1717702;83;21033;-66
2022/02/22 05:19:52;;;;;;;25.85;15.88;;;;;;;9.97;86.26;99722.79;1721709;83;21132;-66
2022/02/22 05:22:19;;;;;;;29.23;15.03;;;;;;;9.90;85.08;99725.84;1722548;83;21022;-70
2022/02/22 05:24:45;;;;;;;25.80;15.68;;;;;;;10.17;83.50;99725.99;1720050;83;21634;-64
2022/02/22 05:27:13;;;;;;;24.63;13.40;;;;;;;10.14;83.60;99729.77;1722890;83;21532;-65
2022/02/22 05:29:40;;;;;;;27.30;14.00;;;;;;;10.16;83.56;99730.91;1696914;83;21121;-65
2022/02/22 05:32:08;;;;;;;22.93;14.07;;;;;;;10.11;84.61;99731.45;1721810;83;21125;-73
2022/02/22 05:34:36;;;;;;;25.80;14.15;;;;;;;10.09;85.44;99735.27;1719144;83;22019;-76
2022/02/22 05:37:03;;;;;;;26.85;14.05;;;;;;;10.22;85.44;99739.23;1718347;83;22459;-64
2022/02/22 05:39:30;;;;;;;23.87;13.40;;;;;;;10.28;85.21;99737.20;1723004;83;21591;-63
2022/02/22 05:41:57;;;;;;;24.07;13.28;;;;;;;10.11;87.88;99743.67;1721821;83;21670;-62
2022/02/22 05:44:23;;;;;;;23.42;12.75;;;;;;;9.91;91.94;99740.47;1720362;81;21224;-63
2022/02/22 05:46:50;;;;;;;25.85;13.62;;;;;;;9.99;93.59;99745.52;1721450;81;21137;-67
2022/02/22 05:49:16;;;;;;;26.17;13.60;;;;;;;9.98;94.94;99746.52;1721007;81;21127;-64
2022/02/22 05:51:44;;;;;;;22.93;12.60;;;;;;;10.00;97.22;99748.95;1718497;81;21947;-65
2022/02/22 05:54:10;;;;;;;23.27;13.13;;;;;;;10.10;97.03;99744.18;1721238;83;21094;-70
2022/02/22 05:56:37;;;;;;;22.55;12.40;;;;;;;10.09;98.08;99744.38;1722158;83;21139;-65
2022/02/22 05:59:04;;;;;;;20.08;12.00;;;;;;;10.22;97.66;99750.45;1718229;83;21022;-68
2022/02/22 06:01:33;;;;;;;19.42;11.20;;;;;;;10.32;97.67;99751.94;1723507;82;21445;-62
2022/02/22 06:03:58;;;;;;;24.52;13.48;;;;;;;10.47;96.92;99740.38;1723938;82;21477;-62
2022/02/22 06:06:25;;;;;;;19.67;12.07;;;;;;;10.57;96.46;99752.23;1724668;83;21089;-64
2022/02/22 06:08:51;;;;;;;20.75;12.23;;;;;;;10.60;97.42;99759.16;1723058;82;21113;-63
2022/02/22 06:11:18;;;;;;;22.22;12.23;;;;;;;10.65;97.84;99757.30;1723640;83;21125;-66
2022/02/22 06:13:46;;;;;;;19.92;11.12;;;;;;;10.77;97.27;99764.05;1722589;82;21053;-64
2022/02/22 06:16:12;;;;;;;22.85;12.07;;;;;;;10.68;98.66;99768.13;1724020;82;21053;-63
2022/02/22 06:18:39;;;;;;;17.45;11.85;;;;;;;10.78;98.52;99763.84;1722447;81;21027;-69
2022/02/22 06:21:05;;;;;;;19.65;11.45;;;;;;;10.79;98.01;99758.92;1723888;81;21721;-70
2022/02/22 06:23:32;;;;;;;17.82;10.93;;;;;;;10.82;99.18;99774.17;1721470;82;21014;-64
2022/02/22 06:25:58;;;;;;;16.85;11.00;;;;;;;10.80;98.99;99772.78;1719784;82;21065;-64
2022/02/22 06:28:25;;;;;;;17.70;12.33;;;;;;;10.76;100.00;99769.77;1723529;81;21128;-65
2022/02/22 06:30:51;;;;;;;16.23;10.80;;;;;;;10.82;100.00;99774.17;1720838;81;20974;-69
2022/02/22 06:33:18;;;;;;;15.32;9.60;;;;;;;10.91;99.91;99782.61;1717995;83;21088;-65
2022/02/22 06:35:45;;;;;;;15.78;9.83;;;;;;;10.82;100.00;99783.80;1720188;83;21451;-64
2022/02/22 06:38:11;;;;;;;15.38;9.45;;;;;;;10.84;99.67;99782.62;1718369;83;21508;-66
2022/02/22 06:40:38;;;;;;;16.70;10.35;;;;;;;10.82;99.91;99795.03;1718805;81;21144;-62
2022/02/22 06:43:04;;;;;;;15.32;10.00;;;;;;;10.71;100.00;99783.86;1716888;82;20990;-68
2022/02/22 06:45:32;;;;;;;15.88;10.40;;;;;;;10.73;100.00;99793.61;1717148;81;21120;-63
2022/02/22 06:47:58;;;;;;;14.70;9.50;;;;;;;10.91;99.73;99799.09;1716974;81;21120;-63
2022/02/22 06:50:25;;;;;;;18.27;11.28;;;;;;;11.00;98.96;99804.13;1715413;81;21618;-67
2022/02/22 06:52:52;;;;;;;16.70;10.98;;;;;;;10.94;100.00;99797.88;1712245;81;21071;-71
2022/02/22 06:55:19;;;;;;;17.52;10.38;;;;;;;11.34;96.08;99800.58;1717378;81;21050;-74
2022/02/22 06:57:53;;;;;;;14.03;9.60;;;;;;;11.30;94.67;99793.65;1716404;81;21115;-63
2022/02/22 07:00:21;;;;;;;19.55;10.68;;;;;;;10.94;97.56;99786.94;1717625;81;21025;-66
2022/02/22 07:02:49;;;;;;;16.50;11.80;;;;;;;11.16;97.28;99784.98;1720728;81;21010;-69
2022/02/22 07:05:18;;;;;;;17.52;11.78;;;;;;;11.50;93.01;99777.20;1716060;81;20991;-71
2022/02/22 07:07:45;;;;;;;14.73;10.10;;;;;;;11.45;91.50;99774.69;1715809;81;21082;-65
2022/02/22 07:10:11;;;;;;;17.07;11.15;;;;;;;11.32;94.74;99781.19;1716094;81;21131;-66
2022/02/22 07:12:38;;;;;;;16.75;11.22;;;;;;;11.35;95.48;99784.71;1719563;81;20978;-66
2022/02/22 07:15:07;;;;;;;19.05;11.35;;;;;;;11.41;94.51;99772.18;1713776;81;21635;-68
2022/02/22 07:17:55;;;;;;;15.43;10.05;;;;;;;11.38;95.23;99777.80;1715988;81;22449;-67
2022/02/22 07:20:24;;;;;;;16.25;10.23;;;;;;;11.58;94.22;99774.39;1717834;81;20958;-66
2022/02/22 07:22:52;;;;;;;20.10;11.22;;;;;;;11.75;92.92;99780.81;1716913;81;21106;-70
2022/02/22 07:25:20;;;;;;;16.10;10.40;;;;;;;11.79;91.38;99779.91;1716068;81;20967;-67
2022/02/22 07:27:47;;;;;;;16.48;9.78;;;;;;;11.90;91.58;99776.21;1721129;82;21480;-65
2022/02/22 07:30:18;;;;;;;18.35;10.85;;;;;;;11.98;90.40;99769.97;1718908;81;21094;-65
2022/02/22 07:32:45;;;;;;;14.93;10.18;;;;;;;11.82;91.73;99765.95;1716620;82;21145;-69
2022/02/22 07:35:13;;;;;;;14.93;8.83;;;;;;;12.13;90.12;99764.52;1719798;82;21091;-67
2022/02/22 07:37:41;;;;;;;12.88;8.08;;;;;;;11.81;92.78;99761.71;1717425;82;21344;-65
2022/02/22 07:40:11;;;;;;;12.07;8.15;;;;;;;11.95;91.90;99760.43;1716832;82;21057;-65
2022/02/22 07:42:38;;;;;;;13.65;8.38;;;;;;;12.01;90.45;99762.20;1719589;82;21088;-70
2022/02/22 07:45:07;;;;;;;13.68;9.60;;;;;;;12.41;86.99;99772.05;1716489;82;21049;-65
2022/02/22 07:47:34;;;;;;;12.20;7.58;;;;;;;12.25;88.86;99764.17;1720100;82;21237;-65
2022/02/22 07:50:00;;;;;;;13.22;8.63;;;;;;;12.13;91.60;99761.90;1712905;82;21085;-65
2022/02/22 07:52:28;;;;;;;13.03;8.18;;;;;;;12.41;88.30;99761.09;1719855;83;20966;-64
2022/02/22 07:54:56;;;;;;;11.65;8.48;;;;;;;12.46;87.31;99762.28;1720171;82;20975;-66
2022/02/22 07:57:24;;;;;;;13.22;8.88;;;;;;;12.70;85.08;99756.86;1719830;82;21112;-69
2022/02/22 07:59:52;;;;;;;13.80;9.05;;;;;;;12.62;85.16;99750.86;1719129;82;21105;-64
2022/02/22 08:02:18;;;;;;;11.30;7.80;;;;;;;12.70;85.00;99749.02;1720279;82;21497;-66
2022/02/22 08:04:45;;;;;;;13.93;9.33;;;;;;;12.93;84.12;99744.05;1717254;81;21025;-68
2022/02/22 08:07:14;;;;;;;14.00;9.08;;;;;;;13.01;83.91;99745.11;1717489;83;21473;-66
2022/02/22 08:09:41;;;;;;;11.60;8.55;;;;;;;13.25;82.68;99742.25;1717048;81;20998;-69
2022/02/22 08:12:11;;;;;;;13.90;8.18;;;;;;;13.45;81.06;99739.98;1718506;83;21117;-65
2022/02/22 08:14:39;;;;;;;11.85;7.33;;;;;;;13.36;81.55;99733.70;1719096;83;20986;-67
2022/02/22 08:17:06;;;;;;;11.80;7.42;;;;;;;13.55;80.56;99739.79;1716107;81;21011;-67
2022/02/22 08:19:32;;;;;;;10.15;7.47;;;;;;;13.69;78.34;99737.86;1716682;81;21121;-68
2022/02/22 08:21:59;;;;;;;12.37;8.25;;;;;;;13.77;76.78;99736.78;1718740;81;21142;-66
2022/02/22 08:24:25;;;;;;;11.68;7.95;;;;;;;13.73;77.31;99731.17;1720549;81;21881;-66
2022/02/22 08:26:55;;;;;;;12.90;7.30;;;;;;;13.68;76.26;99725.80;1717255;81;20986;-70
2022/02/22 08:29:23;;;;;;;13.10;8.45;;;;;;;13.58;78.30;99729.41;1722079;81;21133;-63
2022/02/22 08:31:50;;;;;;;13.05;8.73;;;;;;;13.56;81.17;99728.32;1713980;82;21070;-65
2022/02/22 08:34:17;;;;;;;11.80;8.40;;;;;;;13.72;80.46;99730.89;1720372;82;20955;-64
2022/02/22 08:36:44;;;;;;;11.85;8.00;;;;;;;13.78;80.07;99731.83;1719516;82;22101;-62
2022/02/22 08:39:11;;;;;;;11.65;8.03;;;;;;;13.64;81.85;99728.55;1718069;81;21014;-64
2022/02/22 08:41:38;;;;;;;10.95;8.40;;;;;;;13.66;82.92;99733.56;1719322;81;21101;-62
2022/02/22 08:44:06;;;;;;;11.12;7.58;;;;;;;13.59;83.65;99727.86;1720800;81;21581;-64
2022/02/22 08:46:33;;;;;;;11.30;7.70;;;;;;;13.89;80.38;99727.19;1718670;81;21130;-63
2022/02/22 08:48:59;;;;;;;10.65;6.72;;;;;;;14.06;77.40;99732.16;1718823;81;22092;-66
2022/02/22 08:51:26;;;;;;;10.13;7.45;;;;;;;13.96;77.29;99733.67;1714475;81;21595;-62
2022/02/22 08:53:54;;;;;;;9.98;7.28;;;;;;;14.03;76.46;99727.34;1717748;81;21110;-70
2022/02/22 08:56:20;;;;;;;10.93;7.67;;;;;;;13.94;76.54;99719.49;1719603;81;21128;-65
2022/02/22 08:58:47;;;;;;;11.22;7.33;;;;;;;14.16;73.95;99725.58;1717727;81;21575;-65
2022/02/22 09:01:13;;;;;;;12.98;8.33;;;;;;;14.25;72.44;99721.66;1715942;81;21123;-69
2022/02/22 09:03:40;;;;;;;11.45;8.15;;;;;;;14.30;71.34;99719.17;1719827;81;21081;-66
2022/02/22 09:06:06;;;;;;;11.70;8.18;;;;;;;14.25;72.92;99717.22;1715615;81;21072;-65
2022/02/22 09:08:34;;;;;;;12.53;7.92;;;;;;;14.24;73.46;99705.11;1716977;82;21042;-64
2022/02/22 09:11:01;;;;;;;12.28;8.03;;;;;;;14.29;73.34;99705.78;1718652;82;20998;-68
2022/02/22 09:13:28;;;;;;;10.53;7.58;;;;;;;14.42;72.26;99693.80;1714434;81;21153;-71
2022/02/22 09:15:56;;;;;;;10.32;7.37;;;;;;;14.33;70.54;99697.25;1712836;82;21506;-70
2022/02/22 09:18:23;;;;;;;10.93;7.08;;;;;;;14.60;69.67;99688.55;1719360;82;21048;-69
2022/02/22 09:20:49;;;;;;;10.73;7.60;;;;;;;14.57;68.02;99688.19;1720202;82;20951;-64
2022/02/22 09:23:16;;;;;;;11.80;8.58;;;;;;;14.70;67.49;99684.09;1719995;82;21354;-64
2022/02/22 09:25:42;;;;;;;9.13;7.25;;;;;;;14.95;67.69;99679.97;1719745;82;21102;-66
2022/02/22 09:28:10;;;;;;;10.47;7.33;;;;;;;15.28;65.32;99671.56;1719651;82;22652;-71
2022/02/22 09:30:36;;;;;;;10.13;7.67;;;;;;;15.48;65.67;99669.90;1716248;82;21515;-66
2022/02/22 09:33:06;;;;;;;11.40;7.80;;;;;;;15.57;63.98;99666.44;1719246;81;21409;-67
2022/02/22 09:35:35;;;;;;;19.30;12.03;;;;;;;16.00;61.41;99665.23;1719334;81;21626;-66
2022/02/22 09:38:01;;;;;;;18.50;12.40;;;;;;;16.07;58.80;99655.39;1719116;81;22496;-65
2022/02/22 09:40:29;;;;;;;9.60;7.67;;;;;;;16.41;58.66;99654.97;1717739;81;21195;-65
2022/02/22 09:42:55;;;;;;;10.37;8.30;;;;;;;16.96;56.67;99658.80;1719720;82;21795;-65
2022/02/22 09:45:22;;;;;;;11.10;8.77;;;;;;;17.39;53.75;99650.25;1719841;82;21323;-65
2022/02/22 09:47:49;;;;;;;10.53;7.67;;;;;;;17.59;52.28;99654.20;1718746;82;21815;-66
2022/02/22 09:50:17;;;;;;;10.47;8.33;;;;;;;17.87;50.20;99651.93;1716848;82;21408;-71
2022/02/22 09:52:44;;;;;;;12.43;10.07;;;;;;;18.65;48.97;99640.09;1724051;82;21374;-65
2022/02/22 09:55:10;;;;;;;13.30;9.50;;;;;;;18.65;48.97;99640.09;1714163;82;21441;-65
2022/02/22 09:57:38;;;;;;;13.47;7.67;;;;;;;19.42;45.52;99635.36;1715403;81;21452;-69
2022/02/22 10:00:23;;;;;;;11.20;8.53;;;;;;;19.42;45.52;99635.36;1718232;81;22229;-65
2022/02/22 10:02:50;;;;;;;13.07;9.10;;;;;;;19.37;45.04;99642.74;1716675;82;21705;-66
2022/02/22 10:05:20;;;;;;;10.80;7.50;;;;;;;19.48;44.88;99630.38;1718915;81;21505;-67
2022/02/22 10:08:01;;;;;;;11.25;8.80;;;;;;;19.74;44.41;99639.80;1718138;81;22261;-64
2022/02/22 10:10:38;;;;;;;10.60;8.25;;;;;;;20.08;44.00;99640.97;1717559;81;21093;-64
2022/02/22 10:13:07;;;;;;;11.03;8.40;;;;;;;20.40;42.94;99640.75;1716884;81;21387;-67
2022/02/22 10:15:39;;;;;;;10.03;7.80;;;;;;;20.40;42.68;99633.34;1714643;81;21842;-66
2022/02/22 10:18:06;;;;;;;12.43;8.78;;;;;;;20.74;41.89;99634.20;1719915;81;21549;-66
2022/02/22 10:20:33;;;;;;;10.13;8.47;;;;;;;20.84;41.08;99627.58;1683379;84;21024;-67
2022/02/22 10:23:01;;;;;;;10.50;8.37;;;;;;;20.83;40.89;99623.33;1682995;84;21573;-68
2022/02/22 10:25:28;;;;;;;10.57;8.13;;;;;;;20.80;40.46;99627.85;1683406;82;22478;-66
2022/02/22 10:27:59;;;;;;;10.23;7.87;;;;;;;20.81;40.28;99613.54;1654452;84;39288;-65
2022/02/22 10:30:41;;;;;;;9.00;7.47;;;;;;;20.68;40.73;99624.12;1650991;85;21624;-67
2022/02/22 10:33:21;;;;;;;11.90;8.50;;;;;;;20.80;41.13;99618.05;1716357;81;21081;-67
2022/02/22 10:35:54;;;;;;;11.57;7.60;;;;;;;21.19;39.66;99617.45;1718759;81;21077;-67
2022/02/22 10:38:31;;;;;;;9.83;7.10;;;;;;;20.85;39.23;99615.38;1718710;81;21118;-70
2022/02/22 10:41:06;;;;;;;10.50;8.10;;;;;;;20.53;39.34;99616.98;1721229;81;21168;-70
2022/02/22 10:43:35;;;;;;;11.47;8.43;;;;;;;20.39;40.00;99610.05;1721621;81;21078;-70
2022/02/22 10:46:09;;;;;;;10.10;7.80;;;;;;;20.36;40.47;99607.92;1713542;81;21080;-66
2022/02/22 10:48:39;;;;;;;10.90;7.40;;;;;;;20.35;40.70;99604.23;1725716;81;21123;-66
2022/02/22 10:51:13;;;;;;;9.70;7.23;;;;;;;20.39;40.36;99601.32;1721057;81;21106;-66
2022/02/22 10:53:46;;;;;;;9.23;6.90;;;;;;;20.38;40.42;99597.06;1717876;81;21143;-65
2022/02/22 10:56:15;;;;;;;11.37;7.27;;;;;;;20.37;40.35;99596.81;1721806;81;21015;-72
2022/02/22 10:58:44;;;;;;;9.33;7.60;;;;;;;19.20;42.21;99594.01;1721962;81;21049;-64
2022/02/22 11:01:13;;;;;;;8.80;7.07;;;;;;;18.87;43.97;99594.35;1718199;81;21010;-63
2022/02/22 11:03:42;;;;;;;9.83;7.53;;;;;;;19.30;43.51;99591.96;1715134;81;21529;-65
2022/02/22 11:06:10;;;;;;;11.93;7.80;;;;;;;19.35;43.70;99597.79;1720011;82;21161;-67
2022/02/22 11:08:40;;;;;;;10.33;7.60;;;;;;;19.30;43.69;99595.13;1719826;81;21086;-67
2022/02/22 11:11:13;;;;;;;8.37;6.90;;;;;;;19.42;43.10;99593.86;1713897;81;21077;-67
2022/02/22 11:13:40;;;;;;;8.10;6.13;;;;;;;20.69;41.02;99589.19;1716781;81;21463;-67
2022/02/22 11:16:17;;;;;;;11.00;6.67;;;;;;;21.14;39.79;99581.16;1717345;81;21063;-67
2022/02/22 11:18:49;;;;;;;11.10;6.73;;;;;;;21.36;39.00;99582.16;1721596;81;21083;-72
2022/02/22 11:21:17;;;;;;;9.80;7.17;;;;;;;21.26;39.18;99577.42;1717037;81;20966;-67
2022/02/22 11:23:44;;;;;;;11.03;7.77;;;;;;;21.24;38.99;99584.84;1719847;81;21011;-67
2022/02/22 11:26:19;;;;;;;9.00;7.70;;;;;;;20.93;39.04;99579.61;1721565;81;21441;-66
2022/02/22 11:28:51;;;;;;;8.90;6.70;;;;;;;20.01;39.86;99584.06;1718889;81;21567;-71
2022/02/22 11:31:24;;;;;;;10.53;6.80;;;;;;;20.43;39.88;99581.73;1655965;84;22384;-69